createdAt,value
2017-06-06T00:01:06.226Z,1006.36
2017-06-06T00:02:16.448Z,1006.34
2017-06-06T00:03:26.454Z,1006.33
2017-06-06T00:04:36.421Z,1006.33
2017-06-06T00:05:46.695Z,1006.33
2017-06-06T00:06:56.874Z,1006.31
2017-06-06T00:08:07.396Z,1006.27
2017-06-06T00:09:17.365Z,1006.28
2017-06-06T00:10:27.654Z,1006.22
2017-06-06T00:11:38.000Z,1006.21
2017-06-06T00:12:48.284Z,1006.14
2017-06-06T00:13:58.807Z,1006.15
2017-06-06T00:15:09.087Z,1006.16
2017-06-06T00:16:19.052Z,1006.14
2017-06-06T00:17:29.335Z,1006.13
2017-06-06T00:18:39.611Z,1006.06
2017-06-06T00:19:49.827Z,1006.08
2017-06-06T00:21:00.118Z,1006.03
2017-06-06T00:22:10.087Z,1005.99
2017-06-06T00:23:20.365Z,1006
2017-06-06T00:24:30.681Z,1006.01
2017-06-06T00:25:41.207Z,1005.95
2017-06-06T00:26:51.181Z,1005.95
2017-06-06T00:28:01.461Z,1005.95
2017-06-06T00:29:11.741Z,1005.91
2017-06-06T00:30:21.719Z,1005.93
2017-06-06T00:31:32.245Z,1005.89
2017-06-06T00:32:42.535Z,1005.84
2017-06-06T00:33:52.812Z,1005.83
2017-06-06T00:35:03.090Z,1005.84
2017-06-06T00:36:13.383Z,1005.8
2017-06-06T00:37:23.911Z,1005.82
2017-06-06T00:38:34.191Z,1005.74
2017-06-06T00:39:44.414Z,1005.77
2017-06-06T00:40:54.395Z,1005.74
2017-06-06T00:42:04.670Z,1005.7
2017-06-06T00:43:15.222Z,1005.69
2017-06-06T00:44:25.494Z,1005.68
2017-06-06T00:45:35.782Z,1005.71
2017-06-06T00:46:46.077Z,1005.67
2017-06-06T00:47:56.353Z,1005.64
2017-06-06T00:49:06.593Z,1005.66
2017-06-06T00:50:16.560Z,1005.65
2017-06-06T00:51:26.842Z,1005.61
2017-06-06T00:52:36.817Z,1005.66
2017-06-06T00:53:47.109Z,1005.63
2017-06-06T00:54:57.652Z,1005.62
2017-06-06T00:56:07.929Z,1005.6
2017-06-06T00:57:18.213Z,1005.59
2017-06-06T00:58:27.875Z,1005.57
2017-06-06T00:59:38.156Z,1005.53
2017-06-06T01:00:48.688Z,1005.55
2017-06-06T01:01:58.657Z,1005.5
2017-06-06T01:03:08.929Z,1005.5
2017-06-06T01:04:19.208Z,1005.48
2017-06-06T01:05:29.491Z,1005.47
2017-06-06T01:06:39.705Z,1005.46
2017-06-06T01:07:49.992Z,1005.45
2017-06-06T01:09:00.283Z,1005.38
2017-06-06T01:10:10.569Z,1005.34
2017-06-06T01:11:20.573Z,1005.38
2017-06-06T01:12:31.121Z,1005.38
2017-06-06T01:13:41.096Z,1005.36
2017-06-06T01:14:51.373Z,1005.33
2017-06-06T01:16:01.657Z,1005.33
2017-06-06T01:17:11.927Z,1005.33
2017-06-06T01:18:22.461Z,1005.29
2017-06-06T01:19:32.747Z,1005.25
2017-06-06T01:20:43.031Z,1005.26
2017-06-06T01:21:52.686Z,1005.2
2017-06-06T01:23:02.986Z,1005.19
2017-06-06T01:24:13.511Z,1005.2
2017-06-06T01:25:23.479Z,1005.17
2017-06-06T01:26:33.477Z,1005.17
2017-06-06T01:27:43.754Z,1005.14
2017-06-06T01:28:53.717Z,1005.14
2017-06-06T01:30:04.240Z,1005.1
2017-06-06T01:31:14.551Z,1005.09
2017-06-06T01:32:24.831Z,1005.05
2017-06-06T01:33:35.109Z,1005.04
2017-06-06T01:34:45.392Z,1004.99
2017-06-06T01:35:55.923Z,1005.01
2017-06-06T01:37:06.190Z,1004.99
2017-06-06T01:38:16.166Z,1004.94
2017-06-06T01:39:26.445Z,1004.92
2017-06-06T01:40:36.439Z,1004.92
2017-06-06T01:41:46.977Z,1004.88
2017-06-06T01:42:56.967Z,1004.86
2017-06-06T01:44:06.934Z,1004.83
2017-06-06T01:45:17.208Z,1004.79
2017-06-06T01:46:27.179Z,1004.78
2017-06-06T01:47:37.704Z,1004.78
2017-06-06T01:48:47.980Z,1004.76
2017-06-06T01:49:57.957Z,1004.72
2017-06-06T01:51:07.915Z,1004.7
2017-06-06T01:52:17.888Z,1004.7
2017-06-06T01:53:28.101Z,1004.67
2017-06-06T01:54:38.392Z,1004.65
2017-06-06T01:55:48.674Z,1004.68
2017-06-06T01:56:58.635Z,1004.66
2017-06-06T01:58:08.921Z,1004.65
2017-06-06T01:59:19.454Z,1004.61
2017-06-06T02:00:29.425Z,1004.64
2017-06-06T02:01:39.699Z,1004.55
2017-06-06T02:02:49.991Z,1004.53
2017-06-06T02:04:00.257Z,1004.51
2017-06-06T02:05:10.478Z,1004.49
2017-06-06T02:06:20.754Z,1004.47
2017-06-06T02:07:30.732Z,1004.44
2017-06-06T02:08:41.013Z,1004.45
2017-06-06T02:09:50.986Z,1004.41
2017-06-06T02:11:01.509Z,1004.38
2017-06-06T02:12:11.469Z,1004.39
2017-06-06T02:13:21.437Z,1004.33
2017-06-06T02:14:31.726Z,1004.31
2017-06-06T02:15:42.001Z,1004.32
2017-06-06T02:16:52.230Z,1004.29
2017-06-06T02:18:02.509Z,1004.27
2017-06-06T02:19:12.784Z,1004.28
2017-06-06T02:20:23.059Z,1004.24
2017-06-06T02:21:33.336Z,1004.22
2017-06-06T02:22:43.906Z,1004.2
2017-06-06T02:23:54.183Z,1004.19
2017-06-06T02:25:04.154Z,1004.14
2017-06-06T02:26:14.431Z,1004.07
2017-06-06T02:27:24.712Z,1004.08
2017-06-06T02:28:34.926Z,1004.05
2017-06-06T02:29:44.897Z,1004.01
2017-06-06T02:30:55.182Z,1003.95
2017-06-06T02:32:05.474Z,1003.96
2017-06-06T02:33:15.445Z,1003.95
2017-06-06T02:34:25.683Z,1003.88
2017-06-06T02:35:35.350Z,1003.86
2017-06-06T02:36:44.992Z,1003.87
2017-06-06T02:37:54.968Z,1003.84
2017-06-06T02:39:04.929Z,1003.83
2017-06-06T02:40:15.477Z,1003.76
2017-06-06T02:41:25.447Z,1003.77
2017-06-06T02:42:35.417Z,1003.78
2017-06-06T02:43:45.390Z,1003.76
2017-06-06T02:44:55.659Z,1003.76
2017-06-06T02:46:06.184Z,1003.71
2017-06-06T02:47:16.144Z,1003.7
2017-06-06T02:48:26.110Z,1003.73
2017-06-06T02:49:36.072Z,1003.75
2017-06-06T02:50:46.044Z,1003.7
2017-06-06T02:51:56.254Z,1003.7
2017-06-06T02:53:06.538Z,1003.68
2017-06-06T02:54:16.816Z,1003.71
2017-06-06T02:55:27.097Z,1003.69
2017-06-06T02:56:37.067Z,1003.66
2017-06-06T02:57:47.598Z,1003.67
2017-06-06T02:58:57.872Z,1003.64
2017-06-06T03:00:08.159Z,1003.58
2017-06-06T03:01:18.439Z,1003.63
2017-06-06T03:02:28.715Z,1003.6
2017-06-06T03:03:39.241Z,1003.62
2017-06-06T03:04:49.531Z,1003.58
2017-06-06T03:05:59.193Z,1003.59
2017-06-06T03:07:09.468Z,1003.59
2017-06-06T03:08:19.750Z,1003.6
2017-06-06T03:09:30.281Z,1003.57
2017-06-06T03:10:40.559Z,1003.55
2017-06-06T03:11:50.842Z,1003.55
2017-06-06T03:13:01.122Z,1003.58
2017-06-06T03:14:11.087Z,1003.56
2017-06-06T03:15:21.617Z,1003.55
2017-06-06T03:16:31.897Z,1003.58
2017-06-06T03:17:42.814Z,1003.55
2017-06-06T03:18:53.097Z,1003.48
2017-06-06T03:20:03.369Z,1003.41
2017-06-06T03:21:13.898Z,1003.38
2017-06-06T03:22:24.168Z,1003.34
2017-06-06T03:23:34.457Z,1003.34
2017-06-06T03:24:44.745Z,1003.35
2017-06-06T03:25:54.420Z,1003.27
2017-06-06T03:27:04.349Z,1003.3
2017-06-06T03:28:14.625Z,1003.24
2017-06-06T03:29:24.586Z,1003.28
2017-06-06T03:30:34.855Z,1003.32
2017-06-06T03:31:44.834Z,1003.3
2017-06-06T03:32:55.419Z,1003.33
2017-06-06T03:34:05.074Z,1003.33
2017-06-06T03:35:15.349Z,1003.31
2017-06-06T03:36:25.624Z,1003.3
2017-06-06T03:37:35.582Z,1003.31
2017-06-06T03:38:46.120Z,1003.33
2017-06-06T03:39:56.399Z,1003.35
2017-06-06T03:41:06.061Z,1003.34
2017-06-06T03:42:16.031Z,1003.28
2017-06-06T03:43:26.000Z,1003.28
2017-06-06T03:44:36.547Z,1003.27
2017-06-06T03:45:46.817Z,1003.24
2017-06-06T03:46:57.109Z,1003.25
2017-06-06T03:48:07.378Z,1003.23
2017-06-06T03:49:17.657Z,1003.24
2017-06-06T03:50:28.188Z,1003.24
2017-06-06T03:51:38.170Z,1003.23
2017-06-06T03:52:48.450Z,1003.19
2017-06-06T03:53:58.767Z,1003.15
2017-06-06T03:55:08.732Z,1003.15
2017-06-06T03:56:18.638Z,1003.15
2017-06-06T03:57:28.919Z,1003.12
2017-06-06T03:58:39.186Z,1003.11
2017-06-06T03:59:49.161Z,1003.06
2017-06-06T04:00:59.135Z,1003.05
2017-06-06T04:02:09.664Z,1003.08
2017-06-06T04:03:19.943Z,1003.1
2017-06-06T04:04:30.221Z,1003.13
2017-06-06T04:05:40.194Z,1003.14
2017-06-06T04:06:50.167Z,1003.1
2017-06-06T04:08:00.696Z,1003.09
2017-06-06T04:09:10.984Z,1003.04
2017-06-06T04:10:21.277Z,1003.05
2017-06-06T04:11:31.559Z,1003.05
2017-06-06T04:12:41.521Z,1003.06
2017-06-06T04:13:52.105Z,1003.02
2017-06-06T04:15:02.383Z,1003.02
2017-06-06T04:16:12.663Z,1003.02
2017-06-06T04:17:22.949Z,1003.04
2017-06-06T04:18:32.921Z,1003.04
2017-06-06T04:19:43.445Z,1003.05
2017-06-06T04:20:53.421Z,1003.07
2017-06-06T04:22:03.718Z,1003.05
2017-06-06T04:23:14.027Z,1003.03
2017-06-06T04:24:23.997Z,1003
2017-06-06T04:25:34.526Z,1003.04
2017-06-06T04:26:44.496Z,1003
2017-06-06T04:27:54.470Z,1003.02
2017-06-06T04:29:04.744Z,1002.98
2017-06-06T04:30:14.720Z,1002.95
2017-06-06T04:31:25.241Z,1002.91
2017-06-06T04:32:35.524Z,1002.89
2017-06-06T04:33:45.806Z,1002.92
2017-06-06T04:34:56.089Z,1002.91
2017-06-06T04:36:06.381Z,1002.88
2017-06-06T04:37:16.600Z,1002.85
2017-06-06T04:38:26.896Z,1002.87
2017-06-06T04:39:36.861Z,1002.79
2017-06-06T04:40:47.144Z,1002.77
2017-06-06T04:41:57.431Z,1002.75
2017-06-06T04:43:07.653Z,1002.79
2017-06-06T04:44:17.307Z,1002.8
2017-06-06T04:45:27.273Z,1002.84
2017-06-06T04:46:37.554Z,1002.83
2017-06-06T04:47:47.831Z,1002.8
2017-06-06T04:48:58.075Z,1002.79
2017-06-06T04:50:08.363Z,1002.76
2017-06-06T04:51:18.354Z,1002.71
2017-06-06T04:52:28.644Z,1002.74
2017-06-06T04:53:38.930Z,1002.73
2017-06-06T04:54:49.475Z,1002.73
2017-06-06T04:55:59.766Z,1002.77
2017-06-06T04:57:10.050Z,1002.74
2017-06-06T04:58:20.332Z,1002.77
2017-06-06T04:59:30.327Z,1002.79
2017-06-06T05:00:40.549Z,1002.72
2017-06-06T05:01:50.828Z,1002.7
2017-06-06T05:03:01.114Z,1002.69
2017-06-06T05:04:11.438Z,1002.64
2017-06-06T05:05:21.721Z,1002.64
2017-06-06T05:06:32.269Z,1002.66
2017-06-06T05:07:42.562Z,1002.61
2017-06-06T05:08:52.838Z,1002.63
2017-06-06T05:10:03.125Z,1002.57
2017-06-06T05:11:13.437Z,1002.58
2017-06-06T05:12:23.991Z,1002.58
2017-06-06T05:13:33.973Z,1002.59
2017-06-06T05:14:44.256Z,1002.53
2017-06-06T05:15:54.538Z,1002.54
2017-06-06T05:17:04.813Z,1002.47
2017-06-06T05:18:15.055Z,1002.45
2017-06-06T05:19:25.033Z,1002.47
2017-06-06T05:20:35.316Z,1002.45
2017-06-06T05:21:45.596Z,1002.43
2017-06-06T05:22:55.879Z,1002.53
2017-06-06T05:24:06.468Z,1002.5
2017-06-06T05:25:16.780Z,1002.44
2017-06-06T05:26:26.786Z,1002.48
2017-06-06T05:27:36.758Z,1002.48
2017-06-06T05:28:47.030Z,1002.42
2017-06-06T05:29:57.558Z,1002.41
2017-06-06T05:31:07.852Z,1002.38
2017-06-06T05:32:17.520Z,1002.35
2017-06-06T05:33:27.805Z,1002.33
2017-06-06T05:34:37.782Z,1002.29
2017-06-06T05:35:48.033Z,1002.31
2017-06-06T05:36:58.311Z,1002.31
2017-06-06T05:38:08.594Z,1002.31
2017-06-06T05:39:18.930Z,1002.3
2017-06-06T05:40:29.210Z,1002.33
2017-06-06T05:41:39.762Z,1002.27
2017-06-06T05:42:49.735Z,1002.23
2017-06-06T05:44:00.021Z,1002.22
2017-06-06T05:45:10.302Z,1002.17
2017-06-06T05:46:20.587Z,1002.16
2017-06-06T05:47:31.120Z,1002.14
2017-06-06T05:48:41.411Z,1002.13
2017-06-06T05:49:51.389Z,1002.15
2017-06-06T05:51:01.676Z,1002.14
2017-06-06T05:52:11.957Z,1002.11
2017-06-06T05:53:22.490Z,1002.08
2017-06-06T05:54:32.794Z,1002.1
2017-06-06T05:55:42.778Z,1002.13
2017-06-06T05:56:52.786Z,1002.13
2017-06-06T05:58:03.070Z,1002.07
2017-06-06T05:59:13.610Z,1002.05
2017-06-06T06:00:23.894Z,1002.02
2017-06-06T06:01:33.872Z,1002
2017-06-06T06:02:44.167Z,1002.06
2017-06-06T06:03:54.461Z,1002.02
2017-06-06T06:05:05.093Z,1002.04
2017-06-06T06:06:15.420Z,1002.03
2017-06-06T06:07:25.412Z,1002.06
2017-06-06T06:08:35.759Z,1002.03
2017-06-06T06:09:46.048Z,1002.06
2017-06-06T06:10:56.588Z,1002.02
2017-06-06T06:12:06.580Z,1002.03
2017-06-06T06:13:16.864Z,1002.01
2017-06-06T06:14:27.157Z,1002.05
2017-06-06T06:15:37.442Z,1001.98
2017-06-06T06:16:47.688Z,1001.94
2017-06-06T06:17:57.976Z,1001.96
2017-06-06T06:19:08.256Z,1001.9
2017-06-06T06:20:18.236Z,1001.93
2017-06-06T06:21:28.520Z,1001.9
2017-06-06T06:22:39.061Z,1001.89
2017-06-06T06:23:49.353Z,1001.86
2017-06-06T06:24:59.327Z,1001.83
2017-06-06T06:26:09.626Z,1001.88
2017-06-06T06:27:19.910Z,1001.87
2017-06-06T06:28:30.456Z,1001.85
2017-06-06T06:29:40.755Z,1001.88
2017-06-06T06:30:51.041Z,1001.83
2017-06-06T06:32:00.707Z,1001.87
2017-06-06T06:33:10.694Z,1001.85
2017-06-06T06:34:21.255Z,1001.88
2017-06-06T06:35:31.231Z,1001.85
2017-06-06T06:36:41.528Z,1001.86
2017-06-06T06:37:51.499Z,1001.83
2017-06-06T06:39:01.799Z,1001.75
2017-06-06T06:40:12.338Z,1001.77
2017-06-06T06:41:22.631Z,1001.69
2017-06-06T06:42:32.610Z,1001.71
2017-06-06T06:43:42.932Z,1001.7
2017-06-06T06:44:53.209Z,1001.66
2017-06-06T06:46:03.803Z,1001.65
2017-06-06T06:47:14.097Z,1001.62
2017-06-06T06:48:24.373Z,1001.65
2017-06-06T06:49:34.679Z,1001.61
2017-06-06T06:50:44.967Z,1001.63
2017-06-06T06:51:55.509Z,1001.59
2017-06-06T06:53:05.479Z,1001.55
2017-06-06T06:54:15.760Z,1001.57
2017-06-06T06:55:26.255Z,1001.57
2017-06-06T06:56:35.925Z,1001.53
2017-06-06T06:57:46.186Z,1001.51
2017-06-06T06:58:56.473Z,1001.49
2017-06-06T07:00:06.764Z,1001.5
2017-06-06T07:01:17.045Z,1001.55
2017-06-06T07:02:27.341Z,1001.58
2017-06-06T07:03:37.888Z,1001.53
2017-06-06T07:04:48.172Z,1001.51
2017-06-06T07:05:58.161Z,1001.5
2017-06-06T07:07:08.464Z,1001.51
2017-06-06T07:08:18.758Z,1001.5
2017-06-06T07:09:29.296Z,1001.46
2017-06-06T07:10:39.275Z,1001.48
2017-06-06T07:11:49.565Z,1001.48
2017-06-06T07:12:59.543Z,1001.49
2017-06-06T07:14:09.836Z,1001.43
2017-06-06T07:15:20.366Z,1001.41
2017-06-06T07:16:29.720Z,1001.45
2017-06-06T07:17:39.692Z,1001.42
2017-06-06T07:18:49.988Z,1001.44
2017-06-06T07:19:59.970Z,1001.38
2017-06-06T07:21:10.516Z,1001.35
2017-06-06T07:22:20.499Z,1001.37
2017-06-06T07:23:30.806Z,1001.32
2017-06-06T07:24:41.106Z,1001.33
2017-06-06T07:25:51.398Z,1001.34
2017-06-06T07:27:01.938Z,1001.36
2017-06-06T07:28:11.923Z,1001.32
2017-06-06T07:29:22.201Z,1001.32
2017-06-06T07:30:32.488Z,1001.34
2017-06-06T07:31:42.797Z,1001.32
2017-06-06T07:32:53.013Z,1001.35
2017-06-06T07:34:02.989Z,1001.35
2017-06-06T07:35:13.274Z,1001.34
2017-06-06T07:36:23.572Z,1001.3
2017-06-06T07:37:33.866Z,1001.29
2017-06-06T07:38:44.403Z,1001.29
2017-06-06T07:39:54.752Z,1001.35
2017-06-06T07:41:05.047Z,1001.35
2017-06-06T07:42:15.334Z,1001.38
2017-06-06T07:43:25.621Z,1001.4
2017-06-06T07:44:36.166Z,1001.34
2017-06-06T07:45:46.468Z,1001.31
2017-06-06T07:46:56.745Z,1001.31
2017-06-06T07:48:06.405Z,1001.27
2017-06-06T07:49:16.689Z,1001.26
2017-06-06T07:50:27.226Z,1001.31
2017-06-06T07:51:37.509Z,1001.29
2017-06-06T07:52:47.185Z,1001.3
2017-06-06T07:53:57.473Z,1001.29
2017-06-06T07:55:07.460Z,1001.3
2017-06-06T07:56:17.678Z,1001.34
2017-06-06T07:57:27.968Z,1001.36
2017-06-06T07:58:37.944Z,1001.4
2017-06-06T07:59:48.224Z,1001.43
2017-06-06T08:00:58.221Z,1001.45
2017-06-06T08:02:08.760Z,1001.41
2017-06-06T08:03:18.447Z,1001.43
2017-06-06T08:04:28.726Z,1001.44
2017-06-06T08:05:38.695Z,1001.4
2017-06-06T08:06:49.016Z,1001.4
2017-06-06T08:07:59.545Z,1001.33
2017-06-06T08:09:09.529Z,1001.38
2017-06-06T08:10:19.818Z,1001.33
2017-06-06T08:11:29.788Z,1001.34
2017-06-06T08:12:40.078Z,1001.32
2017-06-06T08:13:50.608Z,1001.32
2017-06-06T08:15:00.598Z,1001.29
2017-06-06T08:16:10.884Z,1001.31
2017-06-06T08:17:21.172Z,1001.25
2017-06-06T08:18:31.467Z,1001.22
2017-06-06T08:19:42.090Z,1001.23
2017-06-06T08:20:52.392Z,1001.24
2017-06-06T08:22:02.694Z,1001.22
2017-06-06T08:23:12.988Z,1001.23
2017-06-06T08:24:23.272Z,1001.22
2017-06-06T08:25:33.811Z,1001.17
2017-06-06T08:26:44.091Z,1001.16
2017-06-06T08:27:54.379Z,1001.21
2017-06-06T08:29:04.662Z,1001.18
2017-06-06T08:30:14.957Z,1001.18
2017-06-06T08:31:25.192Z,1001.13
2017-06-06T08:32:35.180Z,1001.11
2017-06-06T08:33:44.837Z,1001.11
2017-06-06T08:34:54.543Z,1001.09
2017-06-06T08:36:04.515Z,1001.09
2017-06-06T08:37:15.063Z,1001.05
2017-06-06T08:38:25.368Z,1001.09
2017-06-06T08:39:35.338Z,1001.09
2017-06-06T08:40:45.621Z,1001.06
2017-06-06T08:41:55.625Z,1001.04
2017-06-06T08:43:05.860Z,1001.11
2017-06-06T08:44:16.159Z,1001.13
2017-06-06T08:45:26.441Z,1001.13
2017-06-06T08:46:36.727Z,1001.12
2017-06-06T08:47:47.010Z,1001.15
2017-06-06T08:48:56.926Z,1001.12
2017-06-06T08:50:07.211Z,1001.1
2017-06-06T08:51:17.506Z,1001.14
2017-06-06T08:52:27.789Z,1001.12
2017-06-06T08:53:38.077Z,1001.13
2017-06-06T08:54:48.610Z,1001.12
2017-06-06T08:55:58.901Z,1001.1
2017-06-06T08:57:09.208Z,1001.12
2017-06-06T08:58:19.515Z,1001.05
2017-06-06T08:59:29.799Z,1001.05
2017-06-06T09:00:40.337Z,1001.03
2017-06-06T09:01:50.621Z,1001.05
2017-06-06T09:03:00.906Z,1001.03
2017-06-06T09:04:11.196Z,1001.05
2017-06-06T09:05:21.486Z,1000.99
2017-06-06T09:06:32.027Z,1000.99
2017-06-06T09:07:42.311Z,1000.99
2017-06-06T09:08:52.608Z,1001
2017-06-06T09:10:02.270Z,1000.99
2017-06-06T09:11:12.576Z,1000.99
2017-06-06T09:12:23.114Z,1000.93
2017-06-06T09:13:33.095Z,1000.91
2017-06-06T09:14:43.382Z,1000.88
2017-06-06T09:15:53.658Z,1000.87
2017-06-06T09:17:03.957Z,1000.9
2017-06-06T09:18:14.187Z,1000.91
2017-06-06T09:19:24.512Z,1000.89
2017-06-06T09:20:34.818Z,1000.89
2017-06-06T09:21:44.805Z,1000.82
2017-06-06T09:22:55.103Z,1000.85
2017-06-06T09:24:05.644Z,1000.86
2017-06-06T09:25:15.945Z,1000.87
2017-06-06T09:26:26.231Z,1000.82
2017-06-06T09:27:36.513Z,1000.82
2017-06-06T09:28:46.798Z,1000.8
2017-06-06T09:29:57.346Z,1000.8
2017-06-06T09:31:07.317Z,1000.8
2017-06-06T09:32:17.598Z,1000.72
2017-06-06T09:33:27.574Z,1000.68
2017-06-06T09:34:37.871Z,1000.65
2017-06-06T09:35:48.408Z,1000.59
2017-06-06T09:36:58.699Z,1000.57
2017-06-06T09:38:08.989Z,1000.59
2017-06-06T09:39:19.271Z,1000.6
2017-06-06T09:40:29.557Z,1000.55
2017-06-06T09:41:40.089Z,1000.5
2017-06-06T09:42:50.376Z,1000.52
2017-06-06T09:44:00.350Z,1000.49
2017-06-06T09:45:10.637Z,1000.44
2017-06-06T09:46:20.926Z,1000.42
2017-06-06T09:47:31.462Z,1000.43
2017-06-06T09:48:41.757Z,1000.35
2017-06-06T09:49:52.041Z,1000.3
2017-06-06T09:51:01.738Z,1000.28
2017-06-06T09:52:12.033Z,1000.24
2017-06-06T09:53:22.564Z,1000.24
2017-06-06T09:54:32.852Z,1000.21
2017-06-06T09:55:43.144Z,1000.19
2017-06-06T09:56:53.113Z,1000.18
2017-06-06T09:58:02.769Z,1000.17
2017-06-06T09:59:12.698Z,1000.19
2017-06-06T10:00:22.357Z,1000.14
2017-06-06T10:01:32.652Z,1000.2
2017-06-06T10:02:42.942Z,1000.2
2017-06-06T10:03:53.234Z,1000.21
2017-06-06T10:05:03.454Z,1000.17
2017-06-06T10:06:13.452Z,1000.17
2017-06-06T10:07:23.732Z,1000.14
2017-06-06T10:08:33.703Z,1000.18
2017-06-06T10:09:43.997Z,1000.16
2017-06-06T10:10:54.534Z,1000.16
2017-06-06T10:12:04.822Z,1000.16
2017-06-06T10:13:15.126Z,1000.18
2017-06-06T10:14:25.418Z,1000.14
2017-06-06T10:15:35.386Z,1000.19
2017-06-06T10:16:45.928Z,1000.19
2017-06-06T10:17:56.228Z,1000.12
2017-06-06T10:19:06.198Z,1000.11
2017-06-06T10:20:16.208Z,1000.11
2017-06-06T10:21:26.508Z,1000.07
2017-06-06T10:22:37.065Z,1000.08
2017-06-06T10:23:47.354Z,1000.05
2017-06-06T10:24:57.028Z,1000
2017-06-06T10:26:07.019Z,999.95
2017-06-06T10:27:17.312Z,999.97
2017-06-06T10:28:27.232Z,999.97
2017-06-06T10:29:37.531Z,999.92
2017-06-06T10:30:47.826Z,999.9
2017-06-06T10:31:57.800Z,999.9
2017-06-06T10:33:07.775Z,999.81
2017-06-06T10:34:18.008Z,999.77
2017-06-06T10:35:27.978Z,999.76
2017-06-06T10:36:38.272Z,999.72
2017-06-06T10:37:48.564Z,999.71
2017-06-06T10:38:58.851Z,999.68
2017-06-06T10:40:09.398Z,999.66
2017-06-06T10:41:19.687Z,999.61
2017-06-06T10:42:29.978Z,999.6
2017-06-06T10:43:40.270Z,999.55
2017-06-06T10:44:50.560Z,999.52
2017-06-06T10:46:01.094Z,999.48
2017-06-06T10:47:11.068Z,999.44
2017-06-06T10:48:21.358Z,999.43
2017-06-06T10:49:31.323Z,999.42
2017-06-06T10:50:41.606Z,999.41
2017-06-06T10:51:52.161Z,999.39
2017-06-06T10:53:01.832Z,999.34
2017-06-06T10:54:11.809Z,999.4
2017-06-06T10:55:22.097Z,999.38
2017-06-06T10:56:32.382Z,999.39
2017-06-06T10:57:42.917Z,999.32
2017-06-06T10:58:53.198Z,999.32
2017-06-06T11:00:03.170Z,999.34
2017-06-06T11:01:13.459Z,999.34
2017-06-06T11:02:23.754Z,999.34
2017-06-06T11:03:34.295Z,999.25
2017-06-06T11:04:44.595Z,999.23
2017-06-06T11:05:54.919Z,999.32
2017-06-06T11:07:05.214Z,999.31
2017-06-06T11:08:15.201Z,999.28
2017-06-06T11:09:25.430Z,999.22
2017-06-06T11:10:35.443Z,999.2
2017-06-06T11:11:45.416Z,999.21
2017-06-06T11:12:55.703Z,999.21
2017-06-06T11:14:05.994Z,999.19
2017-06-06T11:15:16.563Z,999.21
2017-06-06T11:16:26.533Z,999.16
2017-06-06T11:17:36.827Z,999.14
2017-06-06T11:18:47.140Z,999.07
2017-06-06T11:19:57.428Z,999.07
2017-06-06T11:21:07.706Z,999.04
2017-06-06T11:22:17.997Z,999.06
2017-06-06T11:23:28.291Z,999
2017-06-06T11:24:38.262Z,998.97
2017-06-06T11:25:48.238Z,998.92
2017-06-06T11:26:58.464Z,998.91
2017-06-06T11:28:08.758Z,998.89
2017-06-06T11:29:18.740Z,998.82
2017-06-06T11:30:29.028Z,998.8
2017-06-06T11:31:39.312Z,998.79
2017-06-06T11:32:49.857Z,998.73
2017-06-06T11:33:59.839Z,998.65
2017-06-06T11:35:10.135Z,998.62
2017-06-06T11:36:19.800Z,998.63
2017-06-06T11:37:30.097Z,998.61
2017-06-06T11:38:40.322Z,998.6
2017-06-06T11:39:50.302Z,998.55
2017-06-06T11:41:00.585Z,998.57
2017-06-06T11:42:10.549Z,998.58
2017-06-06T11:43:20.830Z,998.56
2017-06-06T11:44:31.077Z,998.55
2017-06-06T11:45:41.084Z,998.54
2017-06-06T11:46:51.366Z,998.56
2017-06-06T11:48:01.338Z,998.6
2017-06-06T11:49:11.637Z,998.58
2017-06-06T11:50:22.176Z,998.58
2017-06-06T11:51:32.465Z,998.49
2017-06-06T11:52:42.437Z,998.43
2017-06-06T11:53:52.729Z,998.47
2017-06-06T11:55:03.019Z,998.48
2017-06-06T11:56:13.585Z,998.49
2017-06-06T11:57:23.569Z,998.49
2017-06-06T11:58:33.859Z,998.51
2017-06-06T11:59:43.833Z,998.47
2017-06-06T12:00:54.130Z,998.49
2017-06-06T12:02:04.362Z,998.52
2017-06-06T12:03:14.646Z,998.53
2017-06-06T12:04:24.311Z,998.48
2017-06-06T12:05:34.287Z,998.53
2017-06-06T12:06:44.578Z,998.47
2017-06-06T12:07:55.117Z,998.47
2017-06-06T12:09:04.470Z,998.43
2017-06-06T12:10:14.446Z,998.42
2017-06-06T12:11:24.427Z,998.43
2017-06-06T12:12:34.715Z,998.42
2017-06-06T12:13:44.936Z,998.47
2017-06-06T12:14:54.595Z,998.39
2017-06-06T12:16:04.571Z,998.36
2017-06-06T12:17:14.237Z,998.34
2017-06-06T12:18:24.526Z,998.29
2017-06-06T12:19:34.807Z,998.33
2017-06-06T12:20:44.775Z,998.3
2017-06-06T12:21:54.749Z,998.33
2017-06-06T12:23:05.024Z,998.32
2017-06-06T12:24:15.006Z,998.31
2017-06-06T12:25:25.541Z,998.24
2017-06-06T12:26:34.897Z,998.26
2017-06-06T12:27:45.188Z,998.22
2017-06-06T12:28:55.479Z,998.18
2017-06-06T12:30:05.782Z,998.13
2017-06-06T12:31:16.329Z,998.07
2017-06-06T12:32:26.308Z,998.08
2017-06-06T12:33:35.969Z,998.06
2017-06-06T12:34:46.439Z,998.07
2017-06-06T12:35:56.721Z,998.03
2017-06-06T12:37:06.665Z,998.06
2017-06-06T12:38:16.954Z,998.02
2017-06-06T12:39:27.474Z,998.06
2017-06-06T12:40:37.147Z,998.01
2017-06-06T12:41:46.823Z,998.05
2017-06-06T12:42:57.372Z,998.03
2017-06-06T12:44:07.372Z,998.01
2017-06-06T12:45:17.668Z,998.01
2017-06-06T12:46:27.961Z,997.95
2017-06-06T12:47:38.253Z,998.04
2017-06-06T12:48:48.476Z,998.08
2017-06-06T12:49:58.456Z,998.04
2017-06-06T12:51:08.779Z,998
2017-06-06T12:52:19.079Z,998.06
2017-06-06T12:53:29.366Z,998.02
2017-06-06T12:54:39.915Z,997.99
2017-06-06T12:55:50.221Z,998.01
2017-06-06T12:57:00.541Z,997.98
2017-06-06T12:58:10.198Z,997.94
2017-06-06T12:59:20.169Z,997.97
2017-06-06T13:00:30.700Z,997.92
2017-06-06T13:01:40.988Z,997.93
2017-06-06T13:02:50.964Z,997.93
2017-06-06T13:04:00.939Z,997.87
2017-06-06T13:05:10.962Z,997.84
2017-06-06T13:06:20.922Z,997.74
2017-06-06T13:07:30.594Z,997.75
2017-06-06T13:08:40.568Z,997.73
2017-06-06T13:09:50.850Z,997.7
2017-06-06T13:11:01.147Z,997.68
2017-06-06T13:12:11.688Z,997.67
2017-06-06T13:13:21.976Z,997.74
2017-06-06T13:14:31.643Z,997.67
2017-06-06T13:15:41.927Z,997.65
2017-06-06T13:16:51.950Z,997.68
2017-06-06T13:18:01.877Z,997.66
2017-06-06T13:19:12.166Z,997.67
2017-06-06T13:20:22.459Z,997.62
2017-06-06T13:21:32.746Z,997.59
2017-06-06T13:22:43.037Z,997.68
2017-06-06T13:23:53.263Z,997.64
2017-06-06T13:25:02.925Z,997.66
2017-06-06T13:26:12.907Z,997.64
2017-06-06T13:27:22.906Z,997.61
2017-06-06T13:28:33.559Z,997.58
2017-06-06T13:29:44.100Z,997.57
2017-06-06T13:30:54.390Z,997.53
2017-06-06T13:32:04.687Z,997.49
2017-06-06T13:33:14.971Z,997.5
2017-06-06T13:34:24.950Z,997.48
2017-06-06T13:35:35.534Z,997.43
2017-06-06T13:36:45.513Z,997.42
2017-06-06T13:37:55.500Z,997.44
2017-06-06T13:39:05.517Z,997.47
2017-06-06T13:40:15.797Z,997.45
2017-06-06T13:41:26.380Z,997.49
2017-06-06T13:42:36.658Z,997.49
2017-06-06T13:43:46.947Z,997.49
2017-06-06T13:44:57.234Z,997.54
2017-06-06T13:46:07.213Z,997.59
2017-06-06T13:47:16.815Z,997.53
2017-06-06T13:48:27.098Z,997.55
2017-06-06T13:49:37.075Z,997.57
2017-06-06T13:50:47.359Z,997.53
2017-06-06T13:51:57.342Z,997.48
2017-06-06T13:53:07.569Z,997.46
2017-06-06T13:54:17.853Z,997.44
2017-06-06T13:55:27.839Z,997.43
2017-06-06T13:56:37.817Z,997.42
2017-06-06T13:57:47.789Z,997.3
2017-06-06T13:58:58.333Z,997.34
2017-06-06T14:00:08.298Z,997.32
2017-06-06T14:01:18.278Z,997.29
2017-06-06T14:02:28.565Z,997.25
2017-06-06T14:03:38.849Z,997.21
2017-06-06T14:04:49.088Z,997.23
2017-06-06T14:05:59.374Z,997.24
2017-06-06T14:07:09.678Z,997.25
2017-06-06T14:08:19.663Z,997.24
2017-06-06T14:09:29.331Z,997.22
2017-06-06T14:10:39.553Z,997.29
2017-06-06T14:11:49.860Z,997.31
2017-06-06T14:12:59.844Z,997.29
2017-06-06T14:14:09.827Z,997.24
2017-06-06T14:15:20.114Z,997.31
2017-06-06T14:16:30.650Z,997.3
2017-06-06T14:17:40.935Z,997.31
2017-06-06T14:18:51.216Z,997.29
2017-06-06T14:20:01.506Z,997.29